UKDE/OZH METAR and TAF weather

Enter ICAO airport designator
Station Type Date Time Source
UKDE METAR 2018/12/11 17:30 UTC NOAA

UKDE 111730Z 01009MPS 340V040 5000 -SHRA BR BKN010 BKN///CB 03/03 Q1003 R02R/290548 TEMPO 03009G14MPS


Station Type Date Time Source
UKDE Decoded METAR 2018/12/11 17:30 UTC NOAA

Zaporizhzhia / Mokraya, Ukraine (UKDE) 47-52-02N 035-18-59E
Dec 11, 2018 - 12:30 PM EST / 2018.12.11 1730 UTC
Wind: from the N (010 degrees) at 20 MPH (17 KT) (direction variable):0
Visibility: 3 mile(s):0
Sky conditions: mostly cloudy
Weather: light rain showers; mist; Cumulonimbus clouds observed
Temperature: 37 F (3 C)
Dew Point: 37 F (3 C)
Relative Humidity: 100%
Pressure (altimeter): 29.62 in. Hg (1003 hPa)
ob: UKDE 111730Z 01009MPS 340V040 5000 -SHRA BR BKN010 BKN///CB 03/03 Q1003 R02R/290548 TEMPO 03009G14MPS
cycle: 17

Station Type Date Time Source
UKDE TAF 2018/07/21 03:48 UTC NOAA

TAF
AMD TAF
AMD UKDE 210346Z 2103/2115 24003MPS 9999 SCT033CB TX28/2112Z TN20/2103Z
TEMPO 2103/2105 VRB01MPS
TEMPO 2108/2112 -SHRA BKN020CB


Example: see airport list